sensor_id;sensor_type;location;lat;lon;timestamp;temperature;humidity
75961;SHT30;64644;48.914;2.254;2022-12-18T00:03:51;0.82;65.45
75961;SHT30;64644;48.914;2.254;2022-12-18T00:06:17;0.82;65.44
75961;SHT30;64644;48.914;2.254;2022-12-18T00:08:44;0.79;65.46
75961;SHT30;64644;48.914;2.254;2022-12-18T00:11:18;0.78;65.45
75961;SHT30;64644;48.914;2.254;2022-12-18T00:13:44;0.79;65.53
75961;SHT30;64644;48.914;2.254;2022-12-18T00:16:12;0.78;65.44
75961;SHT30;64644;48.914;2.254;2022-12-18T00:18:38;0.73;65.48
75961;SHT30;64644;48.914;2.254;2022-12-18T00:21:06;0.75;65.46
75961;SHT30;64644;48.914;2.254;2022-12-18T00:23:36;0.75;65.57
75961;SHT30;64644;48.914;2.254;2022-12-18T00:26:03;0.73;65.54
75961;SHT30;64644;48.914;2.254;2022-12-18T00:28:29;0.70;65.62
75961;SHT30;64644;48.914;2.254;2022-12-18T00:31:04;0.70;65.66
75961;SHT30;64644;48.914;2.254;2022-12-18T00:33:30;0.65;65.76
75961;SHT30;64644;48.914;2.254;2022-12-18T00:36:09;0.65;65.79
75961;SHT30;64644;48.914;2.254;2022-12-18T00:38:35;0.62;65.80
75961;SHT30;64644;48.914;2.254;2022-12-18T00:41:00;0.61;65.76
75961;SHT30;64644;48.914;2.254;2022-12-18T00:43:26;0.59;65.74
75961;SHT30;64644;48.914;2.254;2022-12-18T00:45:51;0.57;65.79
75961;SHT30;64644;48.914;2.254;2022-12-18T00:48:17;0.55;65.73
75961;SHT30;64644;48.914;2.254;2022-12-18T00:50:42;0.51;65.75
75961;SHT30;64644;48.914;2.254;2022-12-18T00:53:11;0.45;65.80
75961;SHT30;64644;48.914;2.254;2022-12-18T00:55:38;0.47;65.85
75961;SHT30;64644;48.914;2.254;2022-12-18T00:58:04;0.44;65.86
75961;SHT30;64644;48.914;2.254;2022-12-18T01:00:30;0.42;65.86
75961;SHT30;64644;48.914;2.254;2022-12-18T01:02:55;0.44;65.81
75961;SHT30;64644;48.914;2.254;2022-12-18T01:05:20;0.44;65.79
75961;SHT30;64644;48.914;2.254;2022-12-18T01:07:46;0.42;65.84
75961;SHT30;64644;48.914;2.254;2022-12-18T01:10:12;0.42;65.74
75961;SHT30;64644;48.914;2.254;2022-12-18T01:12:37;0.41;65.71
75961;SHT30;64644;48.914;2.254;2022-12-18T01:15:05;0.38;65.68
75961;SHT30;64644;48.914;2.254;2022-12-18T01:17:31;0.37;65.67
75961;SHT30;64644;48.914;2.254;2022-12-18T01:19:56;0.36;65.70
75961;SHT30;64644;48.914;2.254;2022-12-18T01:22:22;0.33;65.73
75961;SHT30;64644;48.914;2.254;2022-12-18T01:24:47;0.33;65.79
75961;SHT30;64644;48.914;2.254;2022-12-18T01:27:13;0.31;65.73
75961;SHT30;64644;48.914;2.254;2022-12-18T01:29:38;0.33;65.89
75961;SHT30;64644;48.914;2.254;2022-12-18T01:32:04;0.30;65.77
75961;SHT30;64644;48.914;2.254;2022-12-18T01:34:29;0.28;65.85
75961;SHT30;64644;48.914;2.254;2022-12-18T01:36:55;0.28;65.87
75961;SHT30;64644;48.914;2.254;2022-12-18T01:39:20;0.30;65.86
75961;SHT30;64644;48.914;2.254;2022-12-18T01:41:46;0.30;65.97
75961;SHT30;64644;48.914;2.254;2022-12-18T01:49:57;0.30;65.91
75961;SHT30;64644;48.914;2.254;2022-12-18T01:52:28;0.28;65.95
75961;SHT30;64644;48.914;2.254;2022-12-18T01:54:55;0.27;65.99
75961;SHT30;64644;48.914;2.254;2022-12-18T01:57:22;0.30;66.00
75961;SHT30;64644;48.914;2.254;2022-12-18T01:59:52;0.30;66.02
75961;SHT30;64644;48.914;2.254;2022-12-18T02:02:19;0.28;66.01
75961;SHT30;64644;48.914;2.254;2022-12-18T02:04:45;0.30;66.00
75961;SHT30;64644;48.914;2.254;2022-12-18T02:07:24;0.27;65.97
75961;SHT30;64644;48.914;2.254;2022-12-18T02:13:13;0.31;65.88
75961;SHT30;64644;48.914;2.254;2022-12-18T02:16:07;0.28;65.89
75961;SHT30;64644;48.914;2.254;2022-12-18T02:18:33;0.30;65.94
75961;SHT30;64644;48.914;2.254;2022-12-18T02:21:31;0.33;65.85
75961;SHT30;64644;48.914;2.254;2022-12-18T02:24:39;0.31;65.80
75961;SHT30;64644;48.914;2.254;2022-12-18T02:27:09;0.33;65.85
75961;SHT30;64644;48.914;2.254;2022-12-18T02:32:12;0.36;65.92
75961;SHT30;64644;48.914;2.254;2022-12-18T02:34:40;0.37;65.84
75961;SHT30;64644;48.914;2.254;2022-12-18T02:37:10;0.37;65.81
75961;SHT30;64644;48.914;2.254;2022-12-18T02:39:40;0.40;65.80
75961;SHT30;64644;48.914;2.254;2022-12-18T02:42:07;0.38;65.86
75961;SHT30;64644;48.914;2.254;2022-12-18T02:44:43;0.37;65.80
75961;SHT30;64644;48.914;2.254;2022-12-18T02:47:11;0.38;65.87
75961;SHT30;64644;48.914;2.254;2022-12-18T03:00:54;0.30;65.76
75961;SHT30;64644;48.914;2.254;2022-12-18T03:03:29;0.25;65.85
75961;SHT30;64644;48.914;2.254;2022-12-18T03:06:05;0.25;65.88
75961;SHT30;64644;48.914;2.254;2022-12-18T03:08:37;0.20;65.94
75961;SHT30;64644;48.914;2.254;2022-12-18T03:11:07;0.23;65.97
75961;SHT30;64644;48.914;2.254;2022-12-18T03:13:49;0.21;65.99
75961;SHT30;64644;48.914;2.254;2022-12-18T03:16:25;0.23;65.99
75961;SHT30;64644;48.914;2.254;2022-12-18T03:19:01;0.21;65.93
75961;SHT30;64644;48.914;2.254;2022-12-18T03:21:32;0.18;66.02
75961;SHT30;64644;48.914;2.254;2022-12-18T03:23:59;0.20;66.06
75961;SHT30;64644;48.914;2.254;2022-12-18T03:26:27;0.23;66.05
75961;SHT30;64644;48.914;2.254;2022-12-18T03:28:59;0.21;66.01
75961;SHT30;64644;48.914;2.254;2022-12-18T03:31:29;0.21;66.07
75961;SHT30;64644;48.914;2.254;2022-12-18T03:34:01;0.21;65.99
75961;SHT30;64644;48.914;2.254;2022-12-18T03:36:30;0.20;66.13
75961;SHT30;64644;48.914;2.254;2022-12-18T03:38:59;0.24;66.17
75961;SHT30;64644;48.914;2.254;2022-12-18T03:41:35;0.24;66.19
75961;SHT30;64644;48.914;2.254;2022-12-18T03:44:17;0.23;66.11
75961;SHT30;64644;48.914;2.254;2022-12-18T03:49:27;0.25;66.18
75961;SHT30;64644;48.914;2.254;2022-12-18T03:52:03;0.23;66.07
75961;SHT30;64644;48.914;2.254;2022-12-18T03:54:31;0.18;66.09
75961;SHT30;64644;48.914;2.254;2022-12-18T03:57:07;0.20;66.15
75961;SHT30;64644;48.914;2.254;2022-12-18T03:59:35;0.20;66.18
75961;SHT30;64644;48.914;2.254;2022-12-18T04:02:03;0.21;66.13
75961;SHT30;64644;48.914;2.254;2022-12-18T04:04:30;0.18;66.15
75961;SHT30;64644;48.914;2.254;2022-12-18T04:06:57;0.18;66.14
75961;SHT30;64644;48.914;2.254;2022-12-18T04:09:25;0.18;66.14
75961;SHT30;64644;48.914;2.254;2022-12-18T04:11:51;0.17;66.25
75961;SHT30;64644;48.914;2.254;2022-12-18T04:14:17;0.14;66.16
75961;SHT30;64644;48.914;2.254;2022-12-18T04:16:42;0.11;66.24
75961;SHT30;64644;48.914;2.254;2022-12-18T04:19:07;0.14;66.30
75961;SHT30;64644;48.914;2.254;2022-12-18T04:21:33;0.14;66.26
75961;SHT30;64644;48.914;2.254;2022-12-18T04:23:58;0.14;66.33
75961;SHT30;64644;48.914;2.254;2022-12-18T04:26:24;0.16;66.33
75961;SHT30;64644;48.914;2.254;2022-12-18T04:28:49;0.14;66.36
75961;SHT30;64644;48.914;2.254;2022-12-18T04:31:15;0.14;66.40
75961;SHT30;64644;48.914;2.254;2022-12-18T04:33:40;0.17;66.44
75961;SHT30;64644;48.914;2.254;2022-12-18T04:36:06;0.18;66.34
75961;SHT30;64644;48.914;2.254;2022-12-18T04:38:32;0.16;66.36
75961;SHT30;64644;48.914;2.254;2022-12-18T04:40:57;0.18;66.42
75961;SHT30;64644;48.914;2.254;2022-12-18T04:43:23;0.20;66.35
75961;SHT30;64644;48.914;2.254;2022-12-18T04:45:48;0.20;66.31
75961;SHT30;64644;48.914;2.254;2022-12-18T04:48:14;0.18;66.34
75961;SHT30;64644;48.914;2.254;2022-12-18T04:50:39;0.16;66.44
75961;SHT30;64644;48.914;2.254;2022-12-18T04:53:04;0.14;66.33
75961;SHT30;64644;48.914;2.254;2022-12-18T04:55:30;0.14;66.39
75961;SHT30;64644;48.914;2.254;2022-12-18T04:57:55;0.14;66.41
75961;SHT30;64644;48.914;2.254;2022-12-18T05:00:21;0.13;66.38
75961;SHT30;64644;48.914;2.254;2022-12-18T05:02:46;0.14;66.35
75961;SHT30;64644;48.914;2.254;2022-12-18T05:05:12;0.13;66.48
75961;SHT30;64644;48.914;2.254;2022-12-18T05:07:38;0.14;66.37
75961;SHT30;64644;48.914;2.254;2022-12-18T05:10:06;0.10;66.43
75961;SHT30;64644;48.914;2.254;2022-12-18T05:12:32;0.13;66.40
75961;SHT30;64644;48.914;2.254;2022-12-18T05:14:58;0.11;66.42
75961;SHT30;64644;48.914;2.254;2022-12-18T05:17:23;0.11;66.42
75961;SHT30;64644;48.914;2.254;2022-12-18T05:19:49;0.10;66.42
75961;SHT30;64644;48.914;2.254;2022-12-18T05:22:15;0.13;66.45
75961;SHT30;64644;48.914;2.254;2022-12-18T05:24:41;0.13;66.37
75961;SHT30;64644;48.914;2.254;2022-12-18T05:27:07;0.11;66.41
75961;SHT30;64644;48.914;2.254;2022-12-18T05:29:33;0.16;66.39
75961;SHT30;64644;48.914;2.254;2022-12-18T05:31:58;0.16;66.48
75961;SHT30;64644;48.914;2.254;2022-12-18T05:34:23;0.16;66.40
75961;SHT30;64644;48.914;2.254;2022-12-18T05:36:50;0.16;66.46
75961;SHT30;64644;48.914;2.254;2022-12-18T05:39:15;0.17;66.50
75961;SHT30;64644;48.914;2.254;2022-12-18T05:41:41;0.16;66.52
75961;SHT30;64644;48.914;2.254;2022-12-18T05:44:06;0.16;66.37
75961;SHT30;64644;48.914;2.254;2022-12-18T05:46:31;0.17;66.34
75961;SHT30;64644;48.914;2.254;2022-12-18T05:48:59;0.20;66.34
75961;SHT30;64644;48.914;2.254;2022-12-18T05:51:26;0.18;66.33
75961;SHT30;64644;48.914;2.254;2022-12-18T05:53:52;0.17;66.16
75961;SHT30;64644;48.914;2.254;2022-12-18T05:56:20;0.16;66.25
75961;SHT30;64644;48.914;2.254;2022-12-18T05:58:47;0.14;66.33
75961;SHT30;64644;48.914;2.254;2022-12-18T06:01:22;0.18;66.33
75961;SHT30;64644;48.914;2.254;2022-12-18T06:03:48;0.20;66.29
75961;SHT30;64644;48.914;2.254;2022-12-18T06:06:20;0.21;66.25
75961;SHT30;64644;48.914;2.254;2022-12-18T06:08:46;0.20;66.16
75961;SHT30;64644;48.914;2.254;2022-12-18T06:11:11;0.21;66.05
75961;SHT30;64644;48.914;2.254;2022-12-18T06:13:37;0.20;66.07
75961;SHT30;64644;48.914;2.254;2022-12-18T06:16:05;0.18;65.97
75961;SHT30;64644;48.914;2.254;2022-12-18T06:18:32;0.18;65.88
75961;SHT30;64644;48.914;2.254;2022-12-18T06:20:59;0.18;65.85
75961;SHT30;64644;48.914;2.254;2022-12-18T06:23:25;0.17;65.80
75961;SHT30;64644;48.914;2.254;2022-12-18T06:25:50;0.14;65.93
75961;SHT30;64644;48.914;2.254;2022-12-18T06:28:16;0.10;65.83
75961;SHT30;64644;48.914;2.254;2022-12-18T06:30:48;0.10;66.03
75961;SHT30;64644;48.914;2.254;2022-12-18T06:33:15;0.11;66.01
75961;SHT30;64644;48.914;2.254;2022-12-18T06:35:41;0.10;65.84
75961;SHT30;64644;48.914;2.254;2022-12-18T06:38:06;0.07;65.95
75961;SHT30;64644;48.914;2.254;2022-12-18T06:40:32;0.09;65.98
75961;SHT30;64644;48.914;2.254;2022-12-18T06:42:57;0.10;66.10
75961;SHT30;64644;48.914;2.254;2022-12-18T06:45:23;0.09;66.07
75961;SHT30;64644;48.914;2.254;2022-12-18T06:47:49;0.07;66.00
75961;SHT30;64644;48.914;2.254;2022-12-18T06:50:14;0.07;65.95
75961;SHT30;64644;48.914;2.254;2022-12-18T06:52:40;0.05;66.01
75961;SHT30;64644;48.914;2.254;2022-12-18T06:55:09;0.06;65.93
75961;SHT30;64644;48.914;2.254;2022-12-18T06:57:35;0.05;65.98
75961;SHT30;64644;48.914;2.254;2022-12-18T07:00:01;0.03;65.95
75961;SHT30;64644;48.914;2.254;2022-12-18T07:02:27;0.05;65.91
75961;SHT30;64644;48.914;2.254;2022-12-18T07:04:53;0.02;65.78
75961;SHT30;64644;48.914;2.254;2022-12-18T07:07:19;0.02;66.00
75961;SHT30;64644;48.914;2.254;2022-12-18T07:09:44;0.00;65.97
75961;SHT30;64644;48.914;2.254;2022-12-18T07:12:09;-0.01;65.94
75961;SHT30;64644;48.914;2.254;2022-12-18T07:14:35;-0.03;65.94
75961;SHT30;64644;48.914;2.254;2022-12-18T07:17:01;-0.05;65.93
75961;SHT30;64644;48.914;2.254;2022-12-18T07:19:27;-0.04;65.95
75961;SHT30;64644;48.914;2.254;2022-12-18T07:21:52;-0.03;65.97
75961;SHT30;64644;48.914;2.254;2022-12-18T07:24:17;-0.01;65.97
75961;SHT30;64644;48.914;2.254;2022-12-18T07:26:45;0.00;65.85
75961;SHT30;64644;48.914;2.254;2022-12-18T07:29:11;-0.01;65.80
75961;SHT30;64644;48.914;2.254;2022-12-18T07:31:38;-0.03;65.78
75961;SHT30;64644;48.914;2.254;2022-12-18T07:34:03;-0.04;65.62
75961;SHT30;64644;48.914;2.254;2022-12-18T07:36:29;-0.07;65.72
75961;SHT30;64644;48.914;2.254;2022-12-18T07:38:54;-0.08;65.75
75961;SHT30;64644;48.914;2.254;2022-12-18T07:41:20;-0.08;65.78
75961;SHT30;64644;48.914;2.254;2022-12-18T07:43:46;-0.10;65.65
75961;SHT30;64644;48.914;2.254;2022-12-18T07:46:13;-0.14;65.63
75961;SHT30;64644;48.914;2.254;2022-12-18T07:48:42;-0.17;65.72
75961;SHT30;64644;48.914;2.254;2022-12-18T07:51:08;-0.18;65.74
75961;SHT30;64644;48.914;2.254;2022-12-18T07:53:35;-0.23;65.83
75961;SHT30;64644;48.914;2.254;2022-12-18T07:56:03;-0.23;65.76
75961;SHT30;64644;48.914;2.254;2022-12-18T07:58:30;-0.25;65.87
75961;SHT30;64644;48.914;2.254;2022-12-18T08:01:06;-0.25;65.87
75961;SHT30;64644;48.914;2.254;2022-12-18T08:03:32;-0.23;65.76
75961;SHT30;64644;48.914;2.254;2022-12-18T08:05:59;-0.22;65.87
75961;SHT30;64644;48.914;2.254;2022-12-18T08:08:25;-0.26;65.81
75961;SHT30;64644;48.914;2.254;2022-12-18T08:10:50;-0.26;65.85
75961;SHT30;64644;48.914;2.254;2022-12-18T08:13:17;-0.25;65.92
75961;SHT30;64644;48.914;2.254;2022-12-18T08:15:42;-0.25;65.98
75961;SHT30;64644;48.914;2.254;2022-12-18T08:18:08;-0.23;65.77
75961;SHT30;64644;48.914;2.254;2022-12-18T08:20:33;-0.22;65.82
75961;SHT30;64644;48.914;2.254;2022-12-18T08:22:59;-0.19;65.82
75961;SHT30;64644;48.914;2.254;2022-12-18T08:25:24;-0.21;65.75
75961;SHT30;64644;48.914;2.254;2022-12-18T08:27:49;-0.21;65.69
75961;SHT30;64644;48.914;2.254;2022-12-18T08:30:15;-0.22;65.74
75961;SHT30;64644;48.914;2.254;2022-12-18T08:32:40;-0.19;65.80
75961;SHT30;64644;48.914;2.254;2022-12-18T08:35:06;-0.17;65.77
75961;SHT30;64644;48.914;2.254;2022-12-18T08:37:33;-0.10;65.69
75961;SHT30;64644;48.914;2.254;2022-12-18T08:39:58;-0.12;65.63
75961;SHT30;64644;48.914;2.254;2022-12-18T08:42:24;-0.07;65.73
75961;SHT30;64644;48.914;2.254;2022-12-18T08:45:08;-0.03;65.60
75961;SHT30;64644;48.914;2.254;2022-12-18T08:47:34;0.02;65.63
75961;SHT30;64644;48.914;2.254;2022-12-18T08:49:59;0.09;65.69
75961;SHT30;64644;48.914;2.254;2022-12-18T08:52:25;0.14;65.28
75961;SHT30;64644;48.914;2.254;2022-12-18T08:54:50;0.16;65.29
75961;SHT30;64644;48.914;2.254;2022-12-18T08:57:16;0.16;65.09
75961;SHT30;64644;48.914;2.254;2022-12-18T08:59:41;0.20;65.22
75961;SHT30;64644;48.914;2.254;2022-12-18T09:02:10;0.24;65.10
75961;SHT30;64644;48.914;2.254;2022-12-18T09:04:35;0.24;65.01
75961;SHT30;64644;48.914;2.254;2022-12-18T09:07:00;0.28;65.00
75961;SHT30;64644;48.914;2.254;2022-12-18T09:09:26;0.31;64.91
75961;SHT30;64644;48.914;2.254;2022-12-18T09:11:51;0.33;64.83
75961;SHT30;64644;48.914;2.254;2022-12-18T09:14:16;0.34;64.67
75961;SHT30;64644;48.914;2.254;2022-12-18T09:16:42;0.37;64.88
75961;SHT30;64644;48.914;2.254;2022-12-18T09:19:09;0.41;64.96
75961;SHT30;64644;48.914;2.254;2022-12-18T09:21:38;0.48;64.90
75961;SHT30;64644;48.914;2.254;2022-12-18T09:24:08;0.51;64.86
75961;SHT30;64644;48.914;2.254;2022-12-18T09:26:36;0.57;64.35
75961;SHT30;64644;48.914;2.254;2022-12-18T09:29:02;0.59;64.45
75961;SHT30;64644;48.914;2.254;2022-12-18T09:31:27;0.62;64.62
75961;SHT30;64644;48.914;2.254;2022-12-18T09:33:55;0.64;64.41
75961;SHT30;64644;48.914;2.254;2022-12-18T09:36:21;0.65;64.51
75961;SHT30;64644;48.914;2.254;2022-12-18T09:38:46;0.69;64.12
75961;SHT30;64644;48.914;2.254;2022-12-18T09:41:43;0.69;64.27
75961;SHT30;64644;48.914;2.254;2022-12-18T09:44:27;0.72;64.15
75961;SHT30;64644;48.914;2.254;2022-12-18T09:49:47;0.72;64.12
75961;SHT30;64644;48.914;2.254;2022-12-18T09:52:21;0.72;64.00
75961;SHT30;64644;48.914;2.254;2022-12-18T09:57:46;0.82;63.77
75961;SHT30;64644;48.914;2.254;2022-12-18T10:00:21;0.86;64.03
75961;SHT30;64644;48.914;2.254;2022-12-18T10:02:47;0.87;64.04
75961;SHT30;64644;48.914;2.254;2022-12-18T10:05:18;0.96;63.98
75961;SHT30;64644;48.914;2.254;2022-12-18T10:10:41;1.03;63.66
75961;SHT30;64644;48.914;2.254;2022-12-18T10:13:30;1.06;63.72
75961;SHT30;64644;48.914;2.254;2022-12-18T10:16:13;1.13;63.59
75961;SHT30;64644;48.914;2.254;2022-12-18T10:19:01;1.14;63.68
75961;SHT30;64644;48.914;2.254;2022-12-18T10:21:48;1.23;63.74
75961;SHT30;64644;48.914;2.254;2022-12-18T10:24:40;1.32;63.79
75961;SHT30;64644;48.914;2.254;2022-12-18T10:27:27;1.40;63.74
75961;SHT30;64644;48.914;2.254;2022-12-18T10:29:54;1.45;63.61
75961;SHT30;64644;48.914;2.254;2022-12-18T10:32:22;1.52;63.45
75961;SHT30;64644;48.914;2.254;2022-12-18T10:34:49;1.58;63.19
75961;SHT30;64644;48.914;2.254;2022-12-18T10:37:17;1.59;62.93
75961;SHT30;64644;48.914;2.254;2022-12-18T10:39:44;1.60;63.05
75961;SHT30;64644;48.914;2.254;2022-12-18T10:42:19;1.65;63.04
75961;SHT30;64644;48.914;2.254;2022-12-18T10:44:45;1.70;63.11
75961;SHT30;64644;48.914;2.254;2022-12-18T10:47:14;1.76;63.03
75961;SHT30;64644;48.914;2.254;2022-12-18T10:49:49;1.77;62.86
75961;SHT30;64644;48.914;2.254;2022-12-18T10:52:18;1.85;62.88
75961;SHT30;64644;48.914;2.254;2022-12-18T10:57:33;1.92;62.77
75961;SHT30;64644;48.914;2.254;2022-12-18T11:00:03;1.99;62.67
75961;SHT30;64644;48.914;2.254;2022-12-18T11:02:38;2.02;62.46
75961;SHT30;64644;48.914;2.254;2022-12-18T11:07:50;2.13;62.30
75961;SHT30;64644;48.914;2.254;2022-12-18T11:10:19;2.14;62.17
75961;SHT30;64644;48.914;2.254;2022-12-18T11:12:46;2.18;62.34
75961;SHT30;64644;48.914;2.254;2022-12-18T11:15:21;2.20;62.17
75961;SHT30;64644;48.914;2.254;2022-12-18T11:17:50;2.18;62.06
75961;SHT30;64644;48.914;2.254;2022-12-18T11:23:10;2.21;62.16
75961;SHT30;64644;48.914;2.254;2022-12-18T11:25:36;2.25;62.18
75961;SHT30;64644;48.914;2.254;2022-12-18T11:28:36;2.27;61.95
75961;SHT30;64644;48.914;2.254;2022-12-18T11:31:26;2.27;62.09
75961;SHT30;64644;48.914;2.254;2022-12-18T11:36:29;2.34;62.12
75961;SHT30;64644;48.914;2.254;2022-12-18T11:38:59;2.39;62.02
75961;SHT30;64644;48.914;2.254;2022-12-18T11:41:30;2.44;62.16
75961;SHT30;64644;48.914;2.254;2022-12-18T11:44:26;2.49;61.63
75961;SHT30;64644;48.914;2.254;2022-12-18T11:46:59;2.50;61.89
75961;SHT30;64644;48.914;2.254;2022-12-18T11:49:29;2.56;61.85
75961;SHT30;64644;48.914;2.254;2022-12-18T11:52:21;2.60;61.88
75961;SHT30;64644;48.914;2.254;2022-12-18T11:54:51;2.66;61.68
75961;SHT30;64644;48.914;2.254;2022-12-18T11:57:33;2.71;61.61
75961;SHT30;64644;48.914;2.254;2022-12-18T12:00:15;2.75;61.74
75961;SHT30;64644;48.914;2.254;2022-12-18T12:05:49;2.86;61.36
75961;SHT30;64644;48.914;2.254;2022-12-18T12:18:41;3.01;61.17
75961;SHT30;64644;48.914;2.254;2022-12-18T12:24:04;3.10;60.93
75961;SHT30;64644;48.914;2.254;2022-12-18T12:29:56;3.20;61.12
75961;SHT30;64644;48.914;2.254;2022-12-18T12:40:23;3.48;60.89
75961;SHT30;64644;48.914;2.254;2022-12-18T12:42:56;3.51;60.84
75961;SHT30;64644;48.914;2.254;2022-12-18T12:48:07;3.60;60.91
75961;SHT30;64644;48.914;2.254;2022-12-18T12:50:39;3.64;60.78
75961;SHT30;64644;48.914;2.254;2022-12-18T12:53:08;3.69;60.48
75961;SHT30;64644;48.914;2.254;2022-12-18T12:55:38;3.70;60.41
75961;SHT30;64644;48.914;2.254;2022-12-18T13:00:46;3.76;60.59
75961;SHT30;64644;48.914;2.254;2022-12-18T13:03:35;3.79;60.41
75961;SHT30;64644;48.914;2.254;2022-12-18T13:06:09;3.77;60.36
75961;SHT30;64644;48.914;2.254;2022-12-18T13:08:58;3.77;60.24
75961;SHT30;64644;48.914;2.254;2022-12-18T13:11:42;3.74;60.34
75961;SHT30;64644;48.914;2.254;2022-12-18T13:14:40;3.76;60.45
75961;SHT30;64644;48.914;2.254;2022-12-18T13:20:04;3.79;60.43
75961;SHT30;64644;48.914;2.254;2022-12-18T13:22:48;3.73;60.36
75961;SHT30;64644;48.914;2.254;2022-12-18T13:25:32;3.72;60.59
75961;SHT30;64644;48.914;2.254;2022-12-18T13:48:30;3.81;60.86
75961;SHT30;64644;48.914;2.254;2022-12-18T13:51:02;3.83;60.84
75961;SHT30;64644;48.914;2.254;2022-12-18T13:53:39;3.84;61.00
75961;SHT30;64644;48.914;2.254;2022-12-18T13:56:07;3.86;60.94
75961;SHT30;64644;48.914;2.254;2022-12-18T13:58:32;3.86;61.10
75961;SHT30;64644;48.914;2.254;2022-12-18T14:00:58;3.91;61.22
75961;SHT30;64644;48.914;2.254;2022-12-18T14:03:26;3.97;61.16
75961;SHT30;64644;48.914;2.254;2022-12-18T14:06:05;3.98;60.98
75961;SHT30;64644;48.914;2.254;2022-12-18T14:08:37;4.01;61.02
75961;SHT30;64644;48.914;2.254;2022-12-18T14:11:04;4.04;61.00
75961;SHT30;64644;48.914;2.254;2022-12-18T14:13:35;4.04;61.09
75961;SHT30;64644;48.914;2.254;2022-12-18T14:16:03;4.08;61.27
75961;SHT30;64644;48.914;2.254;2022-12-18T14:18:46;4.11;61.35
75961;SHT30;64644;48.914;2.254;2022-12-18T14:21:27;4.15;61.03
75961;SHT30;64644;48.914;2.254;2022-12-18T14:26:34;4.18;61.37
75961;SHT30;64644;48.914;2.254;2022-12-18T14:29:14;4.21;61.32
75961;SHT30;64644;48.914;2.254;2022-12-18T14:31:42;4.24;61.49
75961;SHT30;64644;48.914;2.254;2022-12-18T14:34:15;4.28;61.53
75961;SHT30;64644;48.914;2.254;2022-12-18T14:36:40;4.25;61.52
75961;SHT30;64644;48.914;2.254;2022-12-18T14:39:16;4.29;61.59
75961;SHT30;64644;48.914;2.254;2022-12-18T14:41:42;4.28;61.70
75961;SHT30;64644;48.914;2.254;2022-12-18T14:44:11;4.29;61.85
75961;SHT30;64644;48.914;2.254;2022-12-18T14:46:39;4.31;62.04
75961;SHT30;64644;48.914;2.254;2022-12-18T14:51:52;4.31;62.21
75961;SHT30;64644;48.914;2.254;2022-12-18T14:54:19;4.32;62.26
75961;SHT30;64644;48.914;2.254;2022-12-18T14:56:47;4.35;62.08
75961;SHT30;64644;48.914;2.254;2022-12-18T14:59:16;4.32;62.18
75961;SHT30;64644;48.914;2.254;2022-12-18T15:01:47;4.36;62.20
75961;SHT30;64644;48.914;2.254;2022-12-18T15:04:25;4.41;62.57
75961;SHT30;64644;48.914;2.254;2022-12-18T15:07:08;4.41;62.34
75961;SHT30;64644;48.914;2.254;2022-12-18T15:09:35;4.43;62.71
75961;SHT30;64644;48.914;2.254;2022-12-18T15:12:01;4.46;62.43
75961;SHT30;64644;48.914;2.254;2022-12-18T15:16:56;4.48;62.55
75961;SHT30;64644;48.914;2.254;2022-12-18T15:19:36;4.49;62.61
75961;SHT30;64644;48.914;2.254;2022-12-18T15:22:02;4.52;62.72
75961;SHT30;64644;48.914;2.254;2022-12-18T15:24:31;4.54;62.98
75961;SHT30;64644;48.914;2.254;2022-12-18T15:26:57;4.57;62.84
75961;SHT30;64644;48.914;2.254;2022-12-18T15:29:23;4.57;63.14
75961;SHT30;64644;48.914;2.254;2022-12-18T15:32:04;4.57;62.94
75961;SHT30;64644;48.914;2.254;2022-12-18T15:34:31;4.57;63.10
75961;SHT30;64644;48.914;2.254;2022-12-18T15:36:57;4.60;63.43
75961;SHT30;64644;48.914;2.254;2022-12-18T15:39:22;4.60;63.54
75961;SHT30;64644;48.914;2.254;2022-12-18T15:41:48;4.62;63.72
75961;SHT30;64644;48.914;2.254;2022-12-18T15:44:32;4.64;63.84
75961;SHT30;64644;48.914;2.254;2022-12-18T15:46:58;4.63;63.22
75961;SHT30;64644;48.914;2.254;2022-12-18T15:49:23;4.63;63.38
75961;SHT30;64644;48.914;2.254;2022-12-18T15:51:52;4.62;63.32
75961;SHT30;64644;48.914;2.254;2022-12-18T15:54:19;4.57;63.30
75961;SHT30;64644;48.914;2.254;2022-12-18T15:57:04;4.62;63.18
75961;SHT30;64644;48.914;2.254;2022-12-18T15:59:48;4.62;63.38
75961;SHT30;64644;48.914;2.254;2022-12-18T16:02:16;4.64;63.27
75961;SHT30;64644;48.914;2.254;2022-12-18T16:04:42;4.67;63.31
75961;SHT30;64644;48.914;2.254;2022-12-18T16:07:08;4.69;63.34
75961;SHT30;64644;48.914;2.254;2022-12-18T16:09:35;4.70;63.14
75961;SHT30;64644;48.914;2.254;2022-12-18T16:12:00;4.73;63.29
75961;SHT30;64644;48.914;2.254;2022-12-18T16:14:28;4.73;63.43
75961;SHT30;64644;48.914;2.254;2022-12-18T16:16:59;4.74;63.48
75961;SHT30;64644;48.914;2.254;2022-12-18T16:19:27;4.76;63.49
75961;SHT30;64644;48.914;2.254;2022-12-18T16:21:55;4.79;63.82
75961;SHT30;64644;48.914;2.254;2022-12-18T16:24:23;4.81;63.69
75961;SHT30;64644;48.914;2.254;2022-12-18T16:26:50;4.81;63.82
75961;SHT30;64644;48.914;2.254;2022-12-18T16:29:23;4.81;63.96
75961;SHT30;64644;48.914;2.254;2022-12-18T16:31:52;4.84;64.17
75961;SHT30;64644;48.914;2.254;2022-12-18T16:34:26;4.85;64.26
75961;SHT30;64644;48.914;2.254;2022-12-18T16:36:57;4.88;64.55
75961;SHT30;64644;48.914;2.254;2022-12-18T16:39:24;4.90;64.63
75961;SHT30;64644;48.914;2.254;2022-12-18T16:41:49;4.87;64.56
75961;SHT30;64644;48.914;2.254;2022-12-18T16:44:15;4.87;64.73
75961;SHT30;64644;48.914;2.254;2022-12-18T16:46:40;4.88;65.41
75961;SHT30;64644;48.914;2.254;2022-12-18T16:49:11;4.90;65.09
75961;SHT30;64644;48.914;2.254;2022-12-18T16:51:37;4.87;65.01
75961;SHT30;64644;48.914;2.254;2022-12-18T16:54:03;4.91;65.11
75961;SHT30;64644;48.914;2.254;2022-12-18T16:56:29;4.92;64.99
75961;SHT30;64644;48.914;2.254;2022-12-18T16:58:57;4.91;65.14
75961;SHT30;64644;48.914;2.254;2022-12-18T17:01:24;4.92;65.18
75961;SHT30;64644;48.914;2.254;2022-12-18T17:03:54;4.94;65.18
75961;SHT30;64644;48.914;2.254;2022-12-18T17:06:21;4.91;65.40
75961;SHT30;64644;48.914;2.254;2022-12-18T17:08:46;4.97;65.79
75961;SHT30;64644;48.914;2.254;2022-12-18T17:11:11;4.97;65.79
75961;SHT30;64644;48.914;2.254;2022-12-18T17:13:37;4.99;65.67
75961;SHT30;64644;48.914;2.254;2022-12-18T17:16:03;4.99;65.82
75961;SHT30;64644;48.914;2.254;2022-12-18T17:18:29;5.02;66.00
75961;SHT30;64644;48.914;2.254;2022-12-18T17:20:59;5.02;66.29
75961;SHT30;64644;48.914;2.254;2022-12-18T17:23:25;5.04;66.12
75961;SHT30;64644;48.914;2.254;2022-12-18T17:25:54;5.04;66.23
75961;SHT30;64644;48.914;2.254;2022-12-18T17:28:21;5.07;66.60
75961;SHT30;64644;48.914;2.254;2022-12-18T17:30:47;5.08;66.53
75961;SHT30;64644;48.914;2.254;2022-12-18T17:33:15;5.08;67.29
75961;SHT30;64644;48.914;2.254;2022-12-18T17:35:41;5.05;67.19
75961;SHT30;64644;48.914;2.254;2022-12-18T17:38:07;5.07;67.28
75961;SHT30;64644;48.914;2.254;2022-12-18T17:40:33;5.09;67.53
75961;SHT30;64644;48.914;2.254;2022-12-18T17:42:59;5.08;67.55
75961;SHT30;64644;48.914;2.254;2022-12-18T17:45:24;5.07;67.86
75961;SHT30;64644;48.914;2.254;2022-12-18T17:47:50;5.05;67.96
75961;SHT30;64644;48.914;2.254;2022-12-18T17:50:15;5.05;68.29